sensor_id;sensor_type;location;lat;lon;timestamp;P1;durP1;ratioP1;P2;durP2;ratioP2
17784;SDS011;9016;53.582;10.062;2023-04-03T00:02:12;0.20;;;0.20;;
17784;SDS011;9016;53.582;10.062;2023-04-03T00:04:40;0.20;;;0.20;;
17784;SDS011;9016;53.582;10.062;2023-04-03T00:07:08;0.20;;;0.20;;
17784;SDS011;9016;53.582;10.062;2023-04-03T00:09:36;0.10;;;0.10;;
17784;SDS011;9016;53.582;10.062;2023-04-03T00:12:07;0.20;;;0.20;;
17784;SDS011;9016;53.582;10.062;2023-04-03T00:14:35;0.10;;;0.10;;
17784;SDS011;9016;53.582;10.062;2023-04-03T00:17:05;0.20;;;0.20;;
17784;SDS011;9016;53.582;10.062;2023-04-03T00:19:33;0.20;;;0.20;;
17784;SDS011;9016;53.582;10.062;2023-04-03T00:22:01;0.10;;;0.10;;
17784;SDS011;9016;53.582;10.062;2023-04-03T00:24:32;0.13;;;0.13;;
17784;SDS011;9016;53.582;10.062;2023-04-03T00:27:00;0.20;;;0.20;;
17784;SDS011;9016;53.582;10.062;2023-04-03T00:29:28;0.13;;;0.13;;
17784;SDS011;9016;53.582;10.062;2023-04-03T00:31:56;0.20;;;0.20;;
17784;SDS011;9016;53.582;10.062;2023-04-03T00:34:26;0.17;;;0.17;;
17784;SDS011;9016;53.582;10.062;2023-04-03T00:36:54;0.20;;;0.20;;
17784;SDS011;9016;53.582;10.062;2023-04-03T00:39:22;0.20;;;0.20;;
17784;SDS011;9016;53.582;10.062;2023-04-03T00:41:50;0.20;;;0.20;;
17784;SDS011;9016;53.582;10.062;2023-04-03T00:44:19;0.20;;;0.20;;
17784;SDS011;9016;53.582;10.062;2023-04-03T00:46:48;0.20;;;0.20;;
17784;SDS011;9016;53.582;10.062;2023-04-03T00:49:16;0.20;;;0.20;;
17784;SDS011;9016;53.582;10.062;2023-04-03T00:51:46;0.17;;;0.17;;
17784;SDS011;9016;53.582;10.062;2023-04-03T00:54:14;0.10;;;0.10;;
17784;SDS011;9016;53.582;10.062;2023-04-03T00:56:43;0.20;;;0.20;;
17784;SDS011;9016;53.582;10.062;2023-04-03T00:59:12;0.20;;;0.20;;
17784;SDS011;9016;53.582;10.062;2023-04-03T01:01:43;0.20;;;0.20;;
17784;SDS011;9016;53.582;10.062;2023-04-03T01:04:24;0.10;;;0.10;;
17784;SDS011;9016;53.582;10.062;2023-04-03T01:06:56;0.20;;;0.20;;
17784;SDS011;9016;53.582;10.062;2023-04-03T01:09:28;0.20;;;0.20;;
17784;SDS011;9016;53.582;10.062;2023-04-03T01:12:12;0.20;;;0.20;;
17784;SDS011;9016;53.582;10.062;2023-04-03T01:14:42;0.20;;;0.20;;
17784;SDS011;9016;53.582;10.062;2023-04-03T01:17:27;0.20;;;0.20;;
17784;SDS011;9016;53.582;10.062;2023-04-03T01:20:02;0.20;;;0.20;;
17784;SDS011;9016;53.582;10.062;2023-04-03T01:22:53;0.10;;;0.10;;
17784;SDS011;9016;53.582;10.062;2023-04-03T01:25:26;0.10;;;0.10;;
17784;SDS011;9016;53.582;10.062;2023-04-03T01:27:54;0.10;;;0.10;;
17784;SDS011;9016;53.582;10.062;2023-04-03T01:30:23;0.13;;;0.13;;
17784;SDS011;9016;53.582;10.062;2023-04-03T01:32:57;0.20;;;0.20;;
17784;SDS011;9016;53.582;10.062;2023-04-03T01:35:25;0.20;;;0.20;;
17784;SDS011;9016;53.582;10.062;2023-04-03T01:37:53;0.20;;;0.20;;
17784;SDS011;9016;53.582;10.062;2023-04-03T01:40:21;0.20;;;0.20;;
17784;SDS011;9016;53.582;10.062;2023-04-03T01:42:49;0.20;;;0.20;;
17784;SDS011;9016;53.582;10.062;2023-04-03T01:45:17;0.10;;;0.10;;
17784;SDS011;9016;53.582;10.062;2023-04-03T01:47:45;0.20;;;0.20;;
17784;SDS011;9016;53.582;10.062;2023-04-03T01:50:15;0.10;;;0.10;;
17784;SDS011;9016;53.582;10.062;2023-04-03T01:52:43;0.20;;;0.20;;
17784;SDS011;9016;53.582;10.062;2023-04-03T01:55:11;0.10;;;0.10;;
17784;SDS011;9016;53.582;10.062;2023-04-03T01:57:40;0.10;;;0.10;;
17784;SDS011;9016;53.582;10.062;2023-04-03T02:00:08;0.10;;;0.10;;
17784;SDS011;9016;53.582;10.062;2023-04-03T02:02:37;0.20;;;0.20;;
17784;SDS011;9016;53.582;10.062;2023-04-03T02:05:06;0.20;;;0.20;;
17784;SDS011;9016;53.582;10.062;2023-04-03T02:07:38;0.10;;;0.10;;
17784;SDS011;9016;53.582;10.062;2023-04-03T02:10:07;0.20;;;0.20;;
17784;SDS011;9016;53.582;10.062;2023-04-03T02:12:35;0.20;;;0.20;;
17784;SDS011;9016;53.582;10.062;2023-04-03T02:15:04;0.13;;;0.13;;
17784;SDS011;9016;53.582;10.062;2023-04-03T02:17:36;0.10;;;0.10;;
17784;SDS011;9016;53.582;10.062;2023-04-03T02:20:04;0.20;;;0.20;;
17784;SDS011;9016;53.582;10.062;2023-04-03T02:22:34;0.10;;;0.10;;
17784;SDS011;9016;53.582;10.062;2023-04-03T02:25:04;0.20;;;0.20;;
17784;SDS011;9016;53.582;10.062;2023-04-03T02:27:36;0.20;;;0.20;;
17784;SDS011;9016;53.582;10.062;2023-04-03T02:30:04;0.20;;;0.20;;
17784;SDS011;9016;53.582;10.062;2023-04-03T02:32:33;0.10;;;0.10;;
17784;SDS011;9016;53.582;10.062;2023-04-03T02:35:02;0.10;;;0.10;;
17784;SDS011;9016;53.582;10.062;2023-04-03T02:37:30;0.13;;;0.13;;
17784;SDS011;9016;53.582;10.062;2023-04-03T02:39:58;0.10;;;0.10;;
17784;SDS011;9016;53.582;10.062;2023-04-03T02:42:28;0.20;;;0.20;;
17784;SDS011;9016;53.582;10.062;2023-04-03T02:44:56;0.10;;;0.10;;
17784;SDS011;9016;53.582;10.062;2023-04-03T02:47:26;0.20;;;0.20;;
17784;SDS011;9016;53.582;10.062;2023-04-03T02:49:54;0.20;;;0.20;;
17784;SDS011;9016;53.582;10.062;2023-04-03T02:52:22;0.10;;;0.10;;
17784;SDS011;9016;53.582;10.062;2023-04-03T02:54:50;0.10;;;0.10;;
17784;SDS011;9016;53.582;10.062;2023-04-03T02:57:18;0.20;;;0.20;;
17784;SDS011;9016;53.582;10.062;2023-04-03T02:59:48;0.20;;;0.20;;
17784;SDS011;9016;53.582;10.062;2023-04-03T03:02:16;0.20;;;0.20;;
17784;SDS011;9016;53.582;10.062;2023-04-03T03:04:44;0.10;;;0.10;;
17784;SDS011;9016;53.582;10.062;2023-04-03T03:07:14;0.10;;;0.10;;
17784;SDS011;9016;53.582;10.062;2023-04-03T03:09:43;0.10;;;0.10;;
17784;SDS011;9016;53.582;10.062;2023-04-03T03:12:11;0.10;;;0.10;;
17784;SDS011;9016;53.582;10.062;2023-04-03T03:14:39;0.20;;;0.20;;
17784;SDS011;9016;53.582;10.062;2023-04-03T03:17:10;0.10;;;0.10;;
17784;SDS011;9016;53.582;10.062;2023-04-03T03:19:38;0.10;;;0.10;;
17784;SDS011;9016;53.582;10.062;2023-04-03T03:22:06;0.10;;;0.10;;
17784;SDS011;9016;53.582;10.062;2023-04-03T03:24:34;0.10;;;0.10;;
17784;SDS011;9016;53.582;10.062;2023-04-03T03:27:04;0.10;;;0.10;;
17784;SDS011;9016;53.582;10.062;2023-04-03T03:29:32;0.10;;;0.10;;
17784;SDS011;9016;53.582;10.062;2023-04-03T03:32:00;0.17;;;0.17;;
17784;SDS011;9016;53.582;10.062;2023-04-03T03:34:32;0.10;;;0.10;;
17784;SDS011;9016;53.582;10.062;2023-04-03T03:37:00;0.13;;;0.13;;
17784;SDS011;9016;53.582;10.062;2023-04-03T03:39:32;0.20;;;0.20;;
17784;SDS011;9016;53.582;10.062;2023-04-03T03:42:01;0.10;;;0.10;;
17784;SDS011;9016;53.582;10.062;2023-04-03T03:44:29;0.10;;;0.10;;
17784;SDS011;9016;53.582;10.062;2023-04-03T03:46:58;0.10;;;0.10;;
17784;SDS011;9016;53.582;10.062;2023-04-03T03:49:26;0.20;;;0.20;;
17784;SDS011;9016;53.582;10.062;2023-04-03T03:51:55;0.10;;;0.10;;
17784;SDS011;9016;53.582;10.062;2023-04-03T03:54:23;0.10;;;0.10;;
17784;SDS011;9016;53.582;10.062;2023-04-03T03:56:52;0.10;;;0.10;;
17784;SDS011;9016;53.582;10.062;2023-04-03T03:59:20;0.10;;;0.10;;
17784;SDS011;9016;53.582;10.062;2023-04-03T04:01:50;0.10;;;0.10;;
17784;SDS011;9016;53.582;10.062;2023-04-03T04:04:18;0.20;;;0.20;;
17784;SDS011;9016;53.582;10.062;2023-04-03T04:06:46;0.10;;;0.10;;
17784;SDS011;9016;53.582;10.062;2023-04-03T04:09:16;0.10;;;0.10;;
17784;SDS011;9016;53.582;10.062;2023-04-03T04:11:45;0.10;;;0.10;;
17784;SDS011;9016;53.582;10.062;2023-04-03T04:14:12;0.10;;;0.10;;
17784;SDS011;9016;53.582;10.062;2023-04-03T04:16:41;0.17;;;0.17;;
17784;SDS011;9016;53.582;10.062;2023-04-03T04:19:09;0.10;;;0.10;;
17784;SDS011;9016;53.582;10.062;2023-04-03T04:21:37;0.20;;;0.20;;
17784;SDS011;9016;53.582;10.062;2023-04-03T04:24:06;0.10;;;0.10;;
17784;SDS011;9016;53.582;10.062;2023-04-03T04:26:37;0.20;;;0.20;;
17784;SDS011;9016;53.582;10.062;2023-04-03T04:29:08;0.10;;;0.10;;
17784;SDS011;9016;53.582;10.062;2023-04-03T04:31:36;0.20;;;0.20;;
17784;SDS011;9016;53.582;10.062;2023-04-03T04:34:04;0.10;;;0.10;;
17784;SDS011;9016;53.582;10.062;2023-04-03T04:36:33;0.10;;;0.10;;
17784;SDS011;9016;53.582;10.062;2023-04-03T04:39:03;0.10;;;0.10;;
17784;SDS011;9016;53.582;10.062;2023-04-03T04:41:34;0.10;;;0.10;;
17784;SDS011;9016;53.582;10.062;2023-04-03T04:44:04;0.10;;;0.10;;
17784;SDS011;9016;53.582;10.062;2023-04-03T04:46:32;0.10;;;0.10;;
17784;SDS011;9016;53.582;10.062;2023-04-03T04:49:01;0.20;;;0.20;;
17784;SDS011;9016;53.582;10.062;2023-04-03T04:51:29;0.20;;;0.20;;
17784;SDS011;9016;53.582;10.062;2023-04-03T04:54:10;0.10;;;0.10;;
17784;SDS011;9016;53.582;10.062;2023-04-03T04:56:38;0.10;;;0.10;;
17784;SDS011;9016;53.582;10.062;2023-04-03T04:59:07;0.10;;;0.10;;
17784;SDS011;9016;53.582;10.062;2023-04-03T05:01:35;0.20;;;0.20;;
17784;SDS011;9016;53.582;10.062;2023-04-03T05:04:06;0.10;;;0.10;;
17784;SDS011;9016;53.582;10.062;2023-04-03T05:06:34;0.20;;;0.20;;
17784;SDS011;9016;53.582;10.062;2023-04-03T05:09:02;0.13;;;0.13;;
17784;SDS011;9016;53.582;10.062;2023-04-03T05:11:31;0.20;;;0.20;;
17784;SDS011;9016;53.582;10.062;2023-04-03T05:13:59;0.17;;;0.17;;
17784;SDS011;9016;53.582;10.062;2023-04-03T05:16:29;0.20;;;0.20;;
17784;SDS011;9016;53.582;10.062;2023-04-03T05:18:57;0.10;;;0.10;;
17784;SDS011;9016;53.582;10.062;2023-04-03T05:21:25;0.10;;;0.10;;
17784;SDS011;9016;53.582;10.062;2023-04-03T05:24:01;0.10;;;0.10;;
17784;SDS011;9016;53.582;10.062;2023-04-03T05:26:29;0.20;;;0.20;;
17784;SDS011;9016;53.582;10.062;2023-04-03T05:28:58;0.10;;;0.10;;
17784;SDS011;9016;53.582;10.062;2023-04-03T05:31:29;0.20;;;0.20;;
17784;SDS011;9016;53.582;10.062;2023-04-03T05:33:57;0.20;;;0.20;;
17784;SDS011;9016;53.582;10.062;2023-04-03T05:36:26;0.10;;;0.10;;
17784;SDS011;9016;53.582;10.062;2023-04-03T05:38:54;0.10;;;0.10;;
17784;SDS011;9016;53.582;10.062;2023-04-03T05:41:23;0.20;;;0.20;;
17784;SDS011;9016;53.582;10.062;2023-04-03T05:43:51;0.20;;;0.20;;
17784;SDS011;9016;53.582;10.062;2023-04-03T05:46:19;0.20;;;0.20;;
17784;SDS011;9016;53.582;10.062;2023-04-03T05:48:49;0.10;;;0.10;;
17784;SDS011;9016;53.582;10.062;2023-04-03T05:51:18;0.10;;;0.10;;
17784;SDS011;9016;53.582;10.062;2023-04-03T05:53:49;0.10;;;0.10;;
17784;SDS011;9016;53.582;10.062;2023-04-03T05:56:22;0.10;;;0.10;;
17784;SDS011;9016;53.582;10.062;2023-04-03T05:58:50;0.20;;;0.20;;
17784;SDS011;9016;53.582;10.062;2023-04-03T06:01:18;0.20;;;0.20;;
17784;SDS011;9016;53.582;10.062;2023-04-03T06:03:46;0.10;;;0.10;;
17784;SDS011;9016;53.582;10.062;2023-04-03T06:06:15;0.10;;;0.10;;
17784;SDS011;9016;53.582;10.062;2023-04-03T06:08:43;0.10;;;0.10;;
17784;SDS011;9016;53.582;10.062;2023-04-03T06:11:12;0.20;;;0.20;;
17784;SDS011;9016;53.582;10.062;2023-04-03T06:13:41;0.20;;;0.20;;
17784;SDS011;9016;53.582;10.062;2023-04-03T06:16:09;0.17;;;0.17;;
17784;SDS011;9016;53.582;10.062;2023-04-03T06:18:40;0.10;;;0.10;;
17784;SDS011;9016;53.582;10.062;2023-04-03T06:21:08;0.10;;;0.10;;
17784;SDS011;9016;53.582;10.062;2023-04-03T06:23:38;0.10;;;0.10;;
17784;SDS011;9016;53.582;10.062;2023-04-03T06:26:07;0.20;;;0.20;;
17784;SDS011;9016;53.582;10.062;2023-04-03T06:28:40;0.10;;;0.10;;
17784;SDS011;9016;53.582;10.062;2023-04-03T06:31:08;0.20;;;0.20;;
17784;SDS011;9016;53.582;10.062;2023-04-03T06:33:36;0.20;;;0.20;;
17784;SDS011;9016;53.582;10.062;2023-04-03T06:36:04;0.20;;;0.20;;
17784;SDS011;9016;53.582;10.062;2023-04-03T06:38:33;0.10;;;0.10;;
17784;SDS011;9016;53.582;10.062;2023-04-03T06:41:05;0.20;;;0.20;;
17784;SDS011;9016;53.582;10.062;2023-04-03T06:43:33;0.20;;;0.20;;
17784;SDS011;9016;53.582;10.062;2023-04-03T06:46:01;0.20;;;0.20;;
17784;SDS011;9016;53.582;10.062;2023-04-03T06:48:29;0.20;;;0.20;;
17784;SDS011;9016;53.582;10.062;2023-04-03T06:50:57;0.20;;;0.20;;
17784;SDS011;9016;53.582;10.062;2023-04-03T06:53:25;0.20;;;0.20;;
17784;SDS011;9016;53.582;10.062;2023-04-03T06:55:53;0.20;;;0.20;;
17784;SDS011;9016;53.582;10.062;2023-04-03T06:58:23;0.20;;;0.20;;
17784;SDS011;9016;53.582;10.062;2023-04-03T07:00:51;0.20;;;0.20;;
17784;SDS011;9016;53.582;10.062;2023-04-03T07:03:19;0.20;;;0.20;;
17784;SDS011;9016;53.582;10.062;2023-04-03T07:05:47;0.20;;;0.20;;
17784;SDS011;9016;53.582;10.062;2023-04-03T07:08:15;0.10;;;0.10;;
17784;SDS011;9016;53.582;10.062;2023-04-03T07:10:43;0.20;;;0.20;;
17784;SDS011;9016;53.582;10.062;2023-04-03T07:13:11;0.10;;;0.10;;
17784;SDS011;9016;53.582;10.062;2023-04-03T07:15:41;0.20;;;0.20;;
17784;SDS011;9016;53.582;10.062;2023-04-03T07:18:09;0.20;;;0.20;;
17784;SDS011;9016;53.582;10.062;2023-04-03T07:20:38;0.20;;;0.20;;
17784;SDS011;9016;53.582;10.062;2023-04-03T07:23:06;0.20;;;0.20;;
17784;SDS011;9016;53.582;10.062;2023-04-03T07:25:34;0.20;;;0.20;;
17784;SDS011;9016;53.582;10.062;2023-04-03T07:28:03;0.20;;;0.20;;
17784;SDS011;9016;53.582;10.062;2023-04-03T07:30:31;0.30;;;0.30;;
17784;SDS011;9016;53.582;10.062;2023-04-03T07:33:00;0.40;;;0.40;;
17784;SDS011;9016;53.582;10.062;2023-04-03T07:35:28;0.50;;;0.50;;
17784;SDS011;9016;53.582;10.062;2023-04-03T07:37:56;0.40;;;0.40;;
17784;SDS011;9016;53.582;10.062;2023-04-03T07:40:24;0.40;;;0.40;;
17784;SDS011;9016;53.582;10.062;2023-04-03T07:42:52;0.43;;;0.43;;
17784;SDS011;9016;53.582;10.062;2023-04-03T07:45:21;0.50;;;0.50;;
17784;SDS011;9016;53.582;10.062;2023-04-03T07:47:50;0.60;;;0.60;;
17784;SDS011;9016;53.582;10.062;2023-04-03T07:50:19;0.50;;;0.50;;
17784;SDS011;9016;53.582;10.062;2023-04-03T07:52:48;0.60;;;0.60;;
17784;SDS011;9016;53.582;10.062;2023-04-03T07:55:17;0.60;;;0.60;;
17784;SDS011;9016;53.582;10.062;2023-04-03T07:57:45;0.60;;;0.60;;
17784;SDS011;9016;53.582;10.062;2023-04-03T08:00:14;0.50;;;0.50;;
17784;SDS011;9016;53.582;10.062;2023-04-03T08:02:44;0.60;;;0.60;;
17784;SDS011;9016;53.582;10.062;2023-04-03T08:05:17;0.50;;;0.50;;
17784;SDS011;9016;53.582;10.062;2023-04-03T08:07:47;0.60;;;0.60;;
17784;SDS011;9016;53.582;10.062;2023-04-03T08:10:16;0.60;;;0.60;;
17784;SDS011;9016;53.582;10.062;2023-04-03T08:12:45;0.60;;;0.60;;
17784;SDS011;9016;53.582;10.062;2023-04-03T08:15:13;0.60;;;0.60;;
17784;SDS011;9016;53.582;10.062;2023-04-03T08:17:42;0.60;;;0.60;;
17784;SDS011;9016;53.582;10.062;2023-04-03T08:20:10;0.65;;;0.65;;
17784;SDS011;9016;53.582;10.062;2023-04-03T08:22:39;0.60;;;0.60;;
17784;SDS011;9016;53.582;10.062;2023-04-03T08:25:09;0.52;;;0.52;;
17784;SDS011;9016;53.582;10.062;2023-04-03T08:27:37;0.60;;;0.60;;
17784;SDS011;9016;53.582;10.062;2023-04-03T08:30:05;0.68;;;0.68;;
17784;SDS011;9016;53.582;10.062;2023-04-03T08:32:35;0.60;;;0.60;;
17784;SDS011;9016;53.582;10.062;2023-04-03T08:35:03;0.60;;;0.60;;
17784;SDS011;9016;53.582;10.062;2023-04-03T08:37:34;0.50;;;0.50;;
17784;SDS011;9016;53.582;10.062;2023-04-03T08:40:02;0.60;;;0.60;;
17784;SDS011;9016;53.582;10.062;2023-04-03T08:42:36;0.60;;;0.60;;
17784;SDS011;9016;53.582;10.062;2023-04-03T08:45:13;0.60;;;0.60;;
17784;SDS011;9016;53.582;10.062;2023-04-03T08:47:47;0.60;;;0.60;;
17784;SDS011;9016;53.582;10.062;2023-04-03T08:50:21;0.60;;;0.60;;
17784;SDS011;9016;53.582;10.062;2023-04-03T08:52:56;0.60;;;0.60;;
17784;SDS011;9016;53.582;10.062;2023-04-03T08:55:27;0.60;;;0.60;;
17784;SDS011;9016;53.582;10.062;2023-04-03T08:57:59;0.60;;;0.60;;
17784;SDS011;9016;53.582;10.062;2023-04-03T09:00:30;0.63;;;0.63;;
17784;SDS011;9016;53.582;10.062;2023-04-03T09:03:10;0.60;;;0.60;;
17784;SDS011;9016;53.582;10.062;2023-04-03T09:05:41;0.70;;;0.70;;
17784;SDS011;9016;53.582;10.062;2023-04-03T09:08:18;0.65;;;0.65;;
17784;SDS011;9016;53.582;10.062;2023-04-03T09:10:58;0.60;;;0.60;;
17784;SDS011;9016;53.582;10.062;2023-04-03T09:13:37;0.60;;;0.60;;
17784;SDS011;9016;53.582;10.062;2023-04-03T09:16:16;0.60;;;0.60;;
17784;SDS011;9016;53.582;10.062;2023-04-03T09:18:50;0.60;;;0.60;;
17784;SDS011;9016;53.582;10.062;2023-04-03T09:21:23;0.50;;;0.50;;
17784;SDS011;9016;53.582;10.062;2023-04-03T09:23:59;0.60;;;0.60;;
17784;SDS011;9016;53.582;10.062;2023-04-03T09:26:30;0.40;;;0.40;;
17784;SDS011;9016;53.582;10.062;2023-04-03T09:29:05;0.30;;;0.30;;
17784;SDS011;9016;53.582;10.062;2023-04-03T09:31:36;0.30;;;0.30;;
17784;SDS011;9016;53.582;10.062;2023-04-03T09:34:10;0.30;;;0.30;;
17784;SDS011;9016;53.582;10.062;2023-04-03T09:36:47;0.30;;;0.30;;
17784;SDS011;9016;53.582;10.062;2023-04-03T09:39:20;0.30;;;0.30;;
17784;SDS011;9016;53.582;10.062;2023-04-03T09:41:59;0.30;;;0.30;;
17784;SDS011;9016;53.582;10.062;2023-04-03T09:44:30;0.30;;;0.30;;
17784;SDS011;9016;53.582;10.062;2023-04-03T09:47:00;0.30;;;0.30;;
17784;SDS011;9016;53.582;10.062;2023-04-03T09:49:46;0.30;;;0.30;;
17784;SDS011;9016;53.582;10.062;2023-04-03T09:52:22;0.30;;;0.30;;
17784;SDS011;9016;53.582;10.062;2023-04-03T09:54:52;0.30;;;0.30;;
17784;SDS011;9016;53.582;10.062;2023-04-03T09:57:20;0.20;;;0.20;;
17784;SDS011;9016;53.582;10.062;2023-04-03T09:59:58;0.30;;;0.30;;
17784;SDS011;9016;53.582;10.062;2023-04-03T10:02:34;0.20;;;0.20;;
17784;SDS011;9016;53.582;10.062;2023-04-03T10:05:04;0.30;;;0.30;;
17784;SDS011;9016;53.582;10.062;2023-04-03T10:07:52;0.30;;;0.30;;
17784;SDS011;9016;53.582;10.062;2023-04-03T10:10:35;0.30;;;0.30;;
17784;SDS011;9016;53.582;10.062;2023-04-03T10:13:06;0.20;;;0.20;;
17784;SDS011;9016;53.582;10.062;2023-04-03T10:15:42;0.30;;;0.30;;
17784;SDS011;9016;53.582;10.062;2023-04-03T10:18:18;0.30;;;0.30;;
17784;SDS011;9016;53.582;10.062;2023-04-03T10:20:59;0.23;;;0.23;;
17784;SDS011;9016;53.582;10.062;2023-04-03T10:23:47;0.30;;;0.30;;
17784;SDS011;9016;53.582;10.062;2023-04-03T10:26:25;0.30;;;0.30;;
17784;SDS011;9016;53.582;10.062;2023-04-03T10:29:01;0.20;;;0.20;;
17784;SDS011;9016;53.582;10.062;2023-04-03T10:31:40;0.30;;;0.30;;
17784;SDS011;9016;53.582;10.062;2023-04-03T10:34:14;0.20;;;0.20;;
17784;SDS011;9016;53.582;10.062;2023-04-03T10:36:50;0.20;;;0.20;;
17784;SDS011;9016;53.582;10.062;2023-04-03T10:39:28;0.20;;;0.20;;
17784;SDS011;9016;53.582;10.062;2023-04-03T10:42:03;0.30;;;0.30;;
17784;SDS011;9016;53.582;10.062;2023-04-03T10:44:49;0.30;;;0.30;;
17784;SDS011;9016;53.582;10.062;2023-04-03T10:47:36;0.20;;;0.20;;
17784;SDS011;9016;53.582;10.062;2023-04-03T10:53:05;0.23;;;0.23;;
17784;SDS011;9016;53.582;10.062;2023-04-03T10:55:43;0.30;;;0.30;;
17784;SDS011;9016;53.582;10.062;2023-04-03T10:58:18;0.30;;;0.30;;
17784;SDS011;9016;53.582;10.062;2023-04-03T11:00:52;0.30;;;0.30;;
17784;SDS011;9016;53.582;10.062;2023-04-03T11:03:29;0.30;;;0.30;;
17784;SDS011;9016;53.582;10.062;2023-04-03T11:06:01;0.20;;;0.20;;
17784;SDS011;9016;53.582;10.062;2023-04-03T11:08:33;0.20;;;0.20;;
17784;SDS011;9016;53.582;10.062;2023-04-03T11:11:06;0.30;;;0.30;;
17784;SDS011;9016;53.582;10.062;2023-04-03T11:13:40;0.30;;;0.30;;
17784;SDS011;9016;53.582;10.062;2023-04-03T11:16:14;0.20;;;0.20;;
17784;SDS011;9016;53.582;10.062;2023-04-03T11:18:51;0.23;;;0.23;;
17784;SDS011;9016;53.582;10.062;2023-04-03T11:21:24;0.20;;;0.20;;
17784;SDS011;9016;53.582;10.062;2023-04-03T11:23:57;0.30;;;0.30;;
17784;SDS011;9016;53.582;10.062;2023-04-03T11:26:27;0.30;;;0.30;;
17784;SDS011;9016;53.582;10.062;2023-04-03T11:29:01;0.20;;;0.20;;
17784;SDS011;9016;53.582;10.062;2023-04-03T11:31:35;0.23;;;0.23;;
17784;SDS011;9016;53.582;10.062;2023-04-03T11:34:17;0.30;;;0.30;;
17784;SDS011;9016;53.582;10.062;2023-04-03T11:36:55;0.20;;;0.20;;
17784;SDS011;9016;53.582;10.062;2023-04-03T11:39:26;0.30;;;0.30;;
17784;SDS011;9016;53.582;10.062;2023-04-03T11:42:12;0.30;;;0.30;;
17784;SDS011;9016;53.582;10.062;2023-04-03T11:44:43;0.23;;;0.23;;
17784;SDS011;9016;53.582;10.062;2023-04-03T11:47:12;0.20;;;0.20;;
17784;SDS011;9016;53.582;10.062;2023-04-03T11:53:00;0.20;;;0.20;;
17784;SDS011;9016;53.582;10.062;2023-04-03T11:58:26;0.20;;;0.20;;
17784;SDS011;9016;53.582;10.062;2023-04-03T12:01:00;0.30;;;0.30;;
17784;SDS011;9016;53.582;10.062;2023-04-03T12:03:32;0.23;;;0.23;;
17784;SDS011;9016;53.582;10.062;2023-04-03T12:09:28;0.20;;;0.20;;
17784;SDS011;9016;53.582;10.062;2023-04-03T12:15:16;0.20;;;0.20;;
17784;SDS011;9016;53.582;10.062;2023-04-03T12:17:49;0.20;;;0.20;;
17784;SDS011;9016;53.582;10.062;2023-04-03T12:23:33;0.20;;;0.20;;
17784;SDS011;9016;53.582;10.062;2023-04-03T12:26:06;0.30;;;0.30;;
17784;SDS011;9016;53.582;10.062;2023-04-03T12:28:48;0.30;;;0.30;;
17784;SDS011;9016;53.582;10.062;2023-04-03T12:31:20;0.20;;;0.20;;
17784;SDS011;9016;53.582;10.062;2023-04-03T12:34:01;0.30;;;0.30;;
17784;SDS011;9016;53.582;10.062;2023-04-03T12:36:45;0.30;;;0.30;;
17784;SDS011;9016;53.582;10.062;2023-04-03T12:39:40;0.30;;;0.30;;
17784;SDS011;9016;53.582;10.062;2023-04-03T12:45:25;0.30;;;0.30;;
17784;SDS011;9016;53.582;10.062;2023-04-03T12:47:54;0.20;;;0.20;;
17784;SDS011;9016;53.582;10.062;2023-04-03T12:50:24;0.20;;;0.20;;
17784;SDS011;9016;53.582;10.062;2023-04-03T12:52:57;0.30;;;0.30;;
17784;SDS011;9016;53.582;10.062;2023-04-03T12:55:29;0.20;;;0.20;;
17784;SDS011;9016;53.582;10.062;2023-04-03T12:57:57;0.20;;;0.20;;
17784;SDS011;9016;53.582;10.062;2023-04-03T13:00:44;0.20;;;0.20;;
17784;SDS011;9016;53.582;10.062;2023-04-03T13:03:21;0.30;;;0.30;;
17784;SDS011;9016;53.582;10.062;2023-04-03T13:05:54;0.20;;;0.20;;
17784;SDS011;9016;53.582;10.062;2023-04-03T13:08:24;0.20;;;0.20;;
17784;SDS011;9016;53.582;10.062;2023-04-03T13:10:54;0.20;;;0.20;;
17784;SDS011;9016;53.582;10.062;2023-04-03T13:13:25;0.23;;;0.23;;
17784;SDS011;9016;53.582;10.062;2023-04-03T13:15:55;0.23;;;0.23;;
17784;SDS011;9016;53.582;10.062;2023-04-03T13:18:25;0.20;;;0.20;;
17784;SDS011;9016;53.582;10.062;2023-04-03T13:20:57;0.30;;;0.30;;
17784;SDS011;9016;53.582;10.062;2023-04-03T13:23:29;0.27;;;0.27;;
17784;SDS011;9016;53.582;10.062;2023-04-03T13:25:58;0.20;;;0.20;;
17784;SDS011;9016;53.582;10.062;2023-04-03T13:28:30;0.30;;;0.30;;
17784;SDS011;9016;53.582;10.062;2023-04-03T13:31:03;0.23;;;0.23;;
17784;SDS011;9016;53.582;10.062;2023-04-03T13:33:37;0.20;;;0.20;;
17784;SDS011;9016;53.582;10.062;2023-04-03T13:36:07;0.20;;;0.20;;
17784;SDS011;9016;53.582;10.062;2023-04-03T13:38:37;0.20;;;0.20;;
17784;SDS011;9016;53.582;10.062;2023-04-03T13:41:20;0.20;;;0.20;;
17784;SDS011;9016;53.582;10.062;2023-04-03T13:43:51;0.30;;;0.30;;
17784;SDS011;9016;53.582;10.062;2023-04-03T13:46:33;0.20;;;0.20;;
17784;SDS011;9016;53.582;10.062;2023-04-03T13:49:01;0.20;;;0.20;;
17784;SDS011;9016;53.582;10.062;2023-04-03T13:51:46;0.20;;;0.20;;
17784;SDS011;9016;53.582;10.062;2023-04-03T13:54:30;0.27;;;0.27;;
17784;SDS011;9016;53.582;10.062;2023-04-03T13:57:00;0.20;;;0.20;;
17784;SDS011;9016;53.582;10.062;2023-04-03T13:59:30;0.20;;;0.20;;
17784;SDS011;9016;53.582;10.062;2023-04-03T14:02:15;0.20;;;0.20;;
17784;SDS011;9016;53.582;10.062;2023-04-03T14:04:48;0.20;;;0.20;;
17784;SDS011;9016;53.582;10.062;2023-04-03T14:07:19;0.20;;;0.20;;
17784;SDS011;9016;53.582;10.062;2023-04-03T14:09:48;0.20;;;0.20;;
17784;SDS011;9016;53.582;10.062;2023-04-03T14:12:18;0.20;;;0.20;;
17784;SDS011;9016;53.582;10.062;2023-04-03T14:14:57;0.20;;;0.20;;
17784;SDS011;9016;53.582;10.062;2023-04-03T14:17:27;0.20;;;0.20;;
17784;SDS011;9016;53.582;10.062;2023-04-03T14:19:55;0.20;;;0.20;;
17784;SDS011;9016;53.582;10.062;2023-04-03T14:22:26;0.20;;;0.20;;
17784;SDS011;9016;53.582;10.062;2023-04-03T14:24:57;0.20;;;0.20;;
17784;SDS011;9016;53.582;10.062;2023-04-03T14:27:27;0.20;;;0.20;;
17784;SDS011;9016;53.582;10.062;2023-04-03T14:29:57;0.20;;;0.20;;
17784;SDS011;9016;53.582;10.062;2023-04-03T14:32:30;0.20;;;0.20;;
17784;SDS011;9016;53.582;10.062;2023-04-03T14:35:01;0.30;;;0.30;;
17784;SDS011;9016;53.582;10.062;2023-04-03T14:37:30;0.20;;;0.20;;
17784;SDS011;9016;53.582;10.062;2023-04-03T14:39:59;0.20;;;0.20;;
17784;SDS011;9016;53.582;10.062;2023-04-03T14:42:30;0.20;;;0.20;;
17784;SDS011;9016;53.582;10.062;2023-04-03T14:45:00;0.20;;;0.20;;
17784;SDS011;9016;53.582;10.062;2023-04-03T14:47:32;0.20;;;0.20;;
17784;SDS011;9016;53.582;10.062;2023-04-03T14:50:02;0.30;;;0.30;;
17784;SDS011;9016;53.582;10.062;2023-04-03T14:52:35;0.20;;;0.20;;
17784;SDS011;9016;53.582;10.062;2023-04-03T14:55:07;0.20;;;0.20;;
17784;SDS011;9016;53.582;10.062;2023-04-03T14:57:36;0.30;;;0.30;;
17784;SDS011;9016;53.582;10.062;2023-04-03T15:00:07;0.20;;;0.20;;
17784;SDS011;9016;53.582;10.062;2023-04-03T15:02:41;0.23;;;0.23;;
17784;SDS011;9016;53.582;10.062;2023-04-03T15:05:11;0.20;;;0.20;;
17784;SDS011;9016;53.582;10.062;2023-04-03T15:07:41;0.20;;;0.20;;
17784;SDS011;9016;53.582;10.062;2023-04-03T15:10:14;0.20;;;0.20;;
17784;SDS011;9016;53.582;10.062;2023-04-03T15:12:45;0.20;;;0.20;;
17784;SDS011;9016;53.582;10.062;2023-04-03T15:15:14;0.20;;;0.20;;
17784;SDS011;9016;53.582;10.062;2023-04-03T15:17:44;0.10;;;0.10;;
17784;SDS011;9016;53.582;10.062;2023-04-03T15:20:15;0.20;;;0.20;;
17784;SDS011;9016;53.582;10.062;2023-04-03T15:22:44;0.20;;;0.20;;
17784;SDS011;9016;53.582;10.062;2023-04-03T15:25:13;0.20;;;0.20;;
17784;SDS011;9016;53.582;10.062;2023-04-03T15:27:42;0.27;;;0.27;;
17784;SDS011;9016;53.582;10.062;2023-04-03T15:30:11;0.27;;;0.27;;
17784;SDS011;9016;53.582;10.062;2023-04-03T15:32:44;0.30;;;0.30;;
17784;SDS011;9016;53.582;10.062;2023-04-03T15:35:13;0.20;;;0.20;;